createdAt,value
2022-10-09T00:01:32.792Z,100.00
2022-10-09T00:04:02.015Z,100.00
2022-10-09T00:06:35.856Z,100.00
2022-10-09T00:09:05.129Z,100.00
2022-10-09T00:11:34.458Z,100.00
2022-10-09T00:14:03.592Z,100.00
2022-10-09T00:16:32.633Z,100.00
2022-10-09T00:19:01.923Z,100.00
2022-10-09T00:21:34.615Z,100.00
2022-10-09T00:24:04.674Z,100.00
2022-10-09T00:26:33.628Z,100.00
2022-10-09T00:29:02.526Z,100.00
2022-10-09T00:31:30.950Z,100.00
2022-10-09T00:33:59.367Z,100.00
2022-10-09T00:36:28.135Z,100.00
2022-10-09T00:38:57.197Z,100.00
2022-10-09T00:41:29.493Z,100.00
2022-10-09T00:44:01.962Z,100.00
2022-10-09T00:46:48.707Z,100.00
2022-10-09T00:49:31.792Z,100.00
2022-10-09T00:52:07.526Z,100.00
2022-10-09T00:54:38.579Z,100.00
2022-10-09T00:57:08.795Z,100.00
2022-10-09T00:59:37.919Z,100.00
2022-10-09T01:02:07.010Z,100.00
2022-10-09T01:04:35.458Z,100.00
2022-10-09T01:07:15.446Z,100.00
2022-10-09T01:09:54.450Z,100.00
2022-10-09T01:12:50.939Z,100.00
2022-10-09T01:15:54.598Z,100.00
2022-10-09T01:18:44.041Z,100.00
2022-10-09T01:21:21.772Z,100.00
2022-10-09T01:24:22.182Z,100.00
2022-10-09T01:27:08.847Z,100.00
2022-10-09T01:29:50.271Z,100.00
2022-10-09T01:32:25.163Z,100.00
2022-10-09T01:34:54.515Z,100.00
2022-10-09T01:37:24.006Z,100.00
2022-10-09T01:39:53.655Z,100.00
2022-10-09T01:42:25.086Z,100.00
2022-10-09T01:44:53.360Z,100.00
2022-10-09T01:47:22.814Z,100.00
2022-10-09T01:50:33.847Z,100.00
2022-10-09T01:53:10.276Z,100.00
2022-10-09T01:56:02.555Z,100.00
2022-10-09T01:58:45.308Z,100.00
2022-10-09T02:01:33.410Z,100.00
2022-10-09T02:04:06.079Z,100.00
2022-10-09T02:06:36.020Z,100.00
2022-10-09T02:09:09.887Z,100.00
2022-10-09T02:11:41.113Z,100.00
2022-10-09T02:14:09.861Z,100.00
2022-10-09T02:16:45.434Z,100.00
2022-10-09T02:19:26.833Z,100.00
2022-10-09T02:22:01.867Z,100.00
2022-10-09T02:24:30.894Z,100.00
2022-10-09T02:26:59.840Z,100.00
2022-10-09T02:29:29.065Z,100.00
2022-10-09T02:31:57.278Z,100.00
2022-10-09T02:34:25.559Z,100.00
2022-10-09T02:36:53.849Z,100.00
2022-10-09T02:39:22.175Z,100.00
2022-10-09T02:41:50.500Z,100.00
2022-10-09T02:44:18.920Z,100.00
2022-10-09T02:46:47.331Z,100.00
2022-10-09T02:49:15.564Z,100.00
2022-10-09T02:51:43.834Z,100.00
2022-10-09T02:54:12.247Z,100.00
2022-10-09T02:56:40.545Z,100.00
2022-10-09T02:59:08.771Z,100.00
2022-10-09T03:01:37.059Z,100.00
2022-10-09T03:04:05.433Z,100.00
2022-10-09T03:06:34.419Z,100.00
2022-10-09T03:09:04.449Z,100.00
2022-10-09T03:11:32.681Z,100.00
2022-10-09T03:14:00.906Z,100.00
2022-10-09T03:16:29.183Z,100.00
2022-10-09T03:18:58.669Z,100.00
2022-10-09T03:21:28.279Z,100.00
2022-10-09T03:23:56.944Z,100.00
2022-10-09T03:26:27.790Z,100.00
2022-10-09T03:28:56.214Z,100.00
2022-10-09T03:31:50.497Z,100.00
2022-10-09T03:34:15.122Z,100.00
2022-10-09T03:36:43.602Z,100.00
2022-10-09T03:39:11.906Z,100.00
2022-10-09T03:41:40.180Z,100.00
2022-10-09T03:44:08.464Z,100.00
2022-10-09T03:46:36.767Z,100.00
2022-10-09T03:49:05.140Z,100.00
2022-10-09T03:51:33.478Z,100.00
2022-10-09T03:54:04.392Z,100.00
2022-10-09T03:56:32.613Z,100.00
2022-10-09T03:59:00.973Z,100.00
2022-10-09T04:01:29.321Z,100.00
2022-10-09T04:03:57.638Z,100.00
2022-10-09T04:06:25.945Z,100.00
2022-10-09T04:08:54.351Z,100.00
2022-10-09T04:11:23.244Z,100.00
2022-10-09T04:13:51.457Z,100.00
2022-10-09T04:16:19.837Z,100.00
2022-10-09T04:18:49.048Z,100.00
2022-10-09T04:21:17.316Z,100.00
2022-10-09T04:23:45.530Z,100.00
2022-10-09T04:26:14.143Z,100.00
2022-10-09T04:28:42.645Z,100.00
2022-10-09T04:31:11.063Z,100.00
2022-10-09T04:33:39.493Z,100.00
2022-10-09T04:36:07.988Z,100.00
2022-10-09T04:38:36.241Z,100.00
2022-10-09T04:41:06.563Z,100.00
2022-10-09T04:43:37.021Z,100.00
2022-10-09T04:46:07.912Z,100.00
2022-10-09T04:48:42.278Z,100.00
2022-10-09T04:51:11.564Z,100.00
2022-10-09T04:53:41.008Z,100.00
2022-10-09T04:56:13.473Z,100.00
2022-10-09T04:58:42.663Z,100.00
2022-10-09T05:01:22.198Z,100.00
2022-10-09T05:03:51.955Z,100.00
2022-10-09T05:06:22.389Z,100.00
2022-10-09T05:08:54.237Z,100.00
2022-10-09T05:11:25.597Z,100.00
2022-10-09T05:13:57.396Z,100.00
2022-10-09T05:16:29.194Z,100.00
2022-10-09T05:19:00.282Z,100.00
2022-10-09T05:21:29.487Z,100.00
2022-10-09T05:23:57.836Z,100.00
2022-10-09T05:26:27.305Z,100.00
2022-10-09T05:28:55.545Z,100.00
2022-10-09T05:31:28.248Z,100.00
2022-10-09T05:34:01.835Z,100.00
2022-10-09T05:36:30.562Z,100.00
2022-10-09T05:39:01.115Z,100.00
2022-10-09T05:41:29.860Z,100.00
2022-10-09T05:44:02.472Z,100.00
2022-10-09T05:46:31.255Z,100.00
2022-10-09T05:49:06.810Z,100.00
2022-10-09T05:51:40.068Z,100.00
2022-10-09T05:54:14.394Z,100.00
2022-10-09T05:56:44.559Z,100.00
2022-10-09T05:59:19.887Z,100.00
2022-10-09T06:01:50.905Z,100.00
2022-10-09T06:04:23.106Z,100.00
2022-10-09T06:06:51.999Z,100.00
2022-10-09T06:09:25.546Z,100.00
2022-10-09T06:11:55.195Z,100.00
2022-10-09T06:14:25.130Z,100.00
2022-10-09T06:16:53.691Z,100.00
2022-10-09T06:19:23.054Z,100.00
2022-10-09T06:21:52.105Z,100.00
2022-10-09T06:24:29.209Z,100.00
2022-10-09T06:26:58.540Z,100.00
2022-10-09T06:29:27.261Z,100.00
2022-10-09T06:31:55.804Z,100.00
2022-10-09T06:34:24.477Z,100.00
2022-10-09T06:36:53.102Z,100.00
2022-10-09T06:39:22.633Z,100.00
2022-10-09T06:41:50.818Z,100.00
2022-10-09T06:44:19.242Z,100.00
2022-10-09T06:46:50.046Z,100.00
2022-10-09T06:49:18.382Z,100.00
2022-10-09T06:51:46.812Z,100.00
2022-10-09T06:54:17.489Z,100.00
2022-10-09T06:56:45.951Z,100.00
2022-10-09T06:59:14.188Z,100.00
2022-10-09T07:01:42.479Z,100.00
2022-10-09T07:04:14.666Z,100.00
2022-10-09T07:06:46.883Z,100.00
2022-10-09T07:09:16.425Z,100.00
2022-10-09T07:11:49.249Z,100.00
2022-10-09T07:14:34.436Z,100.00
2022-10-09T07:17:03.556Z,100.00
2022-10-09T07:19:31.867Z,100.00
2022-10-09T07:22:00.096Z,100.00
2022-10-09T07:24:28.571Z,100.00
2022-10-09T07:26:57.617Z,100.00
2022-10-09T07:29:26.115Z,100.00
2022-10-09T07:32:22.562Z,100.00
2022-10-09T07:34:50.846Z,100.00
2022-10-09T07:37:19.092Z,100.00
2022-10-09T07:39:47.409Z,100.00
2022-10-09T07:42:15.626Z,100.00
2022-10-09T07:44:43.891Z,100.00
2022-10-09T07:47:12.133Z,100.00
2022-10-09T07:49:40.367Z,100.00
2022-10-09T07:52:08.637Z,100.00
2022-10-09T07:54:36.862Z,100.00
2022-10-09T07:57:05.277Z,100.00
2022-10-09T07:59:33.668Z,100.00
2022-10-09T08:02:01.995Z,100.00
2022-10-09T08:04:30.341Z,100.00
2022-10-09T08:06:59.905Z,100.00
2022-10-09T08:09:44.072Z,100.00
2022-10-09T08:12:12.728Z,100.00
2022-10-09T08:15:04.509Z,100.00
2022-10-09T08:17:32.736Z,100.00
2022-10-09T08:20:01.001Z,100.00
2022-10-09T08:22:33.546Z,100.00
2022-10-09T08:25:01.818Z,100.00
2022-10-09T08:27:29.993Z,100.00
2022-10-09T08:29:58.221Z,100.00
2022-10-09T08:32:26.498Z,100.00
2022-10-09T08:35:24.838Z,100.00
2022-10-09T08:38:25.346Z,100.00
2022-10-09T08:41:40.812Z,100.00
2022-10-09T08:44:33.397Z,99.73
2022-10-09T08:47:27.197Z,99.69
2022-10-09T08:50:00.159Z,99.74
2022-10-09T08:52:37.587Z,99.52
2022-10-09T08:55:22.681Z,98.89
2022-10-09T08:57:54.989Z,97.99
2022-10-09T09:00:28.132Z,97.37
2022-10-09T09:03:31.883Z,97.02
2022-10-09T09:06:23.769Z,97.16
2022-10-09T09:09:13.735Z,97.30
2022-10-09T09:12:00.455Z,96.24
2022-10-09T09:14:42.965Z,94.99
2022-10-09T09:17:53.820Z,94.47
2022-10-09T09:21:05.589Z,93.94
2022-10-09T09:23:42.697Z,93.20
2022-10-09T09:26:20.396Z,91.40
2022-10-09T09:28:55.592Z,90.59
2022-10-09T09:31:31.518Z,91.12
2022-10-09T09:34:09.507Z,90.86
2022-10-09T09:36:57.095Z,89.79
2022-10-09T09:42:20.775Z,90.19
2022-10-09T09:45:00.446Z,89.38
2022-10-09T09:47:44.524Z,87.45
2022-10-09T09:50:34.935Z,86.02
2022-10-09T09:53:07.165Z,86.00
2022-10-09T09:55:36.094Z,84.64
2022-10-09T09:58:15.587Z,85.01
2022-10-09T10:00:58.753Z,85.17
2022-10-09T10:03:27.952Z,85.83
2022-10-09T10:05:56.861Z,85.65
2022-10-09T10:08:30.511Z,84.06
2022-10-09T10:11:07.019Z,81.27
2022-10-09T10:13:49.058Z,81.46
2022-10-09T10:16:27.631Z,82.31
2022-10-09T10:18:58.255Z,82.23
2022-10-09T10:21:26.697Z,80.30
2022-10-09T10:24:10.060Z,78.83
2022-10-09T10:26:46.747Z,78.25
2022-10-09T10:29:34.197Z,78.31
2022-10-09T10:32:25.769Z,78.10
2022-10-09T10:35:11.990Z,79.05
2022-10-09T10:38:13.121Z,80.29
2022-10-09T10:40:58.787Z,79.68
2022-10-09T10:43:48.346Z,79.39
2022-10-09T10:46:53.063Z,78.63
2022-10-09T10:49:23.145Z,77.77
2022-10-09T10:52:19.502Z,76.75
2022-10-09T10:57:39.802Z,74.99
2022-10-09T11:00:11.501Z,74.23
2022-10-09T11:03:34.530Z,73.87
2022-10-09T11:06:45.272Z,74.13
2022-10-09T11:09:34.694Z,73.84
2022-10-09T11:12:24.607Z,73.05
2022-10-09T11:15:37.875Z,73.02
2022-10-09T11:18:40.881Z,73.63
2022-10-09T11:21:34.498Z,74.36
2022-10-09T11:24:43.385Z,73.95
2022-10-09T11:27:20.729Z,73.41
2022-10-09T11:30:11.635Z,72.66
2022-10-09T11:33:10.887Z,71.97
2022-10-09T11:35:56.322Z,71.54
2022-10-09T11:38:52.046Z,70.84
2022-10-09T11:41:20.685Z,71.44
2022-10-09T11:44:09.464Z,71.02
2022-10-09T11:47:01.771Z,70.12
2022-10-09T11:50:19.095Z,70.23
2022-10-09T11:53:09.213Z,71.18
2022-10-09T11:55:37.911Z,70.55
2022-10-09T11:58:21.836Z,70.21
2022-10-09T12:00:54.529Z,69.88
2022-10-09T12:03:34.559Z,69.05
2022-10-09T12:06:17.716Z,68.20
2022-10-09T12:09:08.376Z,67.38
2022-10-09T12:11:36.645Z,66.67
2022-10-09T12:14:08.708Z,66.44
2022-10-09T12:16:46.807Z,66.18
2022-10-09T12:19:24.213Z,66.46
2022-10-09T12:22:04.882Z,66.83
2022-10-09T12:24:46.539Z,65.96
2022-10-09T12:27:28.313Z,65.82
2022-10-09T12:30:21.709Z,65.64
2022-10-09T12:32:58.936Z,64.69
2022-10-09T12:35:39.462Z,64.13
2022-10-09T12:38:31.297Z,64.04
2022-10-09T12:41:11.639Z,63.53
2022-10-09T12:43:45.507Z,63.37
2022-10-09T12:46:13.842Z,62.59
2022-10-09T12:48:45.876Z,62.60
2022-10-09T12:51:17.675Z,62.15
2022-10-09T12:53:50.896Z,61.40
2022-10-09T12:56:33.628Z,61.47
2022-10-09T12:59:03.040Z,61.10
2022-10-09T13:01:33.012Z,60.62
2022-10-09T13:04:05.317Z,60.50
2022-10-09T13:06:52.880Z,60.30
2022-10-09T13:09:34.976Z,60.12
2022-10-09T13:12:26.741Z,60.08
2022-10-09T13:15:07.925Z,59.68
2022-10-09T13:17:41.893Z,58.92
2022-10-09T13:20:16.624Z,58.55
2022-10-09T13:23:06.522Z,57.69
2022-10-09T13:25:40.908Z,56.96
2022-10-09T13:28:20.236Z,56.77
2022-10-09T13:30:48.725Z,55.73
2022-10-09T13:33:17.495Z,55.49
2022-10-09T13:35:46.549Z,54.99
2022-10-09T13:38:17.870Z,54.71
2022-10-09T13:40:46.616Z,54.30
2022-10-09T13:43:26.038Z,54.12
2022-10-09T13:45:54.463Z,54.48
2022-10-09T13:48:23.680Z,54.24
2022-10-09T13:50:52.403Z,54.45
2022-10-09T13:53:20.778Z,54.63
2022-10-09T13:55:48.999Z,54.03
2022-10-09T13:58:17.238Z,53.56
2022-10-09T14:00:45.618Z,53.31
2022-10-09T14:03:14.093Z,53.02
2022-10-09T14:05:44.260Z,52.75
2022-10-09T14:08:12.669Z,53.33
2022-10-09T14:10:43.977Z,53.30
2022-10-09T14:13:14.550Z,52.87
2022-10-09T14:15:42.854Z,52.39
2022-10-09T14:18:11.166Z,51.84
2022-10-09T14:20:39.456Z,51.92
2022-10-09T14:23:07.789Z,51.56
2022-10-09T14:25:36.580Z,51.40
2022-10-09T14:28:05.020Z,51.01
2022-10-09T14:30:33.549Z,50.59
2022-10-09T14:33:01.854Z,50.78
2022-10-09T14:35:30.585Z,51.09
2022-10-09T14:37:59.049Z,51.31
2022-10-09T14:40:27.648Z,51.32
2022-10-09T14:42:55.894Z,50.98
2022-10-09T14:45:24.228Z,50.77
2022-10-09T14:47:52.495Z,50.23
2022-10-09T14:50:20.791Z,50.11
2022-10-09T14:52:49.322Z,49.60
2022-10-09T14:55:17.894Z,49.51
2022-10-09T14:57:46.290Z,49.21
2022-10-09T15:00:15.116Z,49.05
2022-10-09T15:05:16.556Z,48.78
2022-10-09T15:07:44.848Z,48.43
2022-10-09T15:10:14.818Z,48.34
2022-10-09T15:12:43.071Z,48.08
2022-10-09T15:15:11.408Z,47.87
2022-10-09T15:17:40.005Z,47.89
2022-10-09T15:20:08.869Z,47.80
2022-10-09T15:22:37.167Z,47.73
2022-10-09T15:25:06.025Z,47.66
2022-10-09T15:27:34.365Z,47.11
2022-10-09T15:30:03.277Z,46.36
2022-10-09T15:32:31.548Z,46.42
2022-10-09T15:34:59.856Z,46.40
2022-10-09T15:37:28.125Z,46.27
2022-10-09T15:39:56.765Z,46.36
2022-10-09T15:42:25.069Z,46.36
2022-10-09T15:44:53.337Z,46.44
2022-10-09T15:47:39.259Z,46.85
2022-10-09T15:50:10.607Z,47.11
2022-10-09T15:52:38.879Z,47.51
2022-10-09T15:55:07.900Z,48.02
2022-10-09T15:57:36.147Z,48.54
2022-10-09T16:00:05.157Z,48.80
2022-10-09T16:02:33.419Z,49.22
2022-10-09T16:05:02.985Z,49.71
2022-10-09T16:07:31.295Z,50.32
2022-10-09T16:09:59.547Z,50.76
2022-10-09T16:12:28.591Z,51.50
2022-10-09T16:14:56.846Z,52.08
2022-10-09T16:17:25.103Z,52.75
2022-10-09T16:19:53.424Z,53.38
2022-10-09T16:22:21.938Z,53.99
2022-10-09T16:24:50.232Z,54.57
2022-10-09T16:27:18.471Z,55.15
2022-10-09T16:29:46.912Z,55.76
2022-10-09T16:32:15.179Z,56.37
2022-10-09T16:34:43.538Z,56.94
2022-10-09T16:37:11.834Z,57.37
2022-10-09T16:39:40.340Z,57.93
2022-10-09T16:42:08.659Z,58.43
2022-10-09T16:44:36.965Z,58.91
2022-10-09T16:47:05.311Z,59.40
2022-10-09T16:49:33.925Z,59.83
2022-10-09T16:52:02.243Z,60.27
2022-10-09T16:54:30.606Z,60.81
2022-10-09T16:56:59.040Z,61.05
2022-10-09T16:59:27.761Z,61.52
2022-10-09T17:01:57.265Z,62.04
2022-10-09T17:04:26.322Z,62.39
2022-10-09T17:06:54.669Z,62.75
2022-10-09T17:09:23.157Z,63.12
2022-10-09T17:11:51.436Z,63.24
2022-10-09T17:14:19.780Z,63.71
2022-10-09T17:16:48.282Z,64.14
2022-10-09T17:19:16.746Z,64.46
2022-10-09T17:21:45.096Z,64.85
2022-10-09T17:24:15.226Z,65.20
2022-10-09T17:27:58.048Z,65.70
2022-10-09T17:30:26.915Z,66.16
2022-10-09T17:32:55.157Z,66.16
2022-10-09T17:35:24.185Z,66.41
2022-10-09T17:37:59.323Z,66.71
2022-10-09T17:40:45.936Z,67.03
2022-10-09T17:43:14.171Z,67.33
2022-10-09T17:45:43.137Z,67.55
2022-10-09T17:48:11.523Z,67.85
2022-10-09T17:50:39.734Z,68.20
2022-10-09T17:53:07.939Z,68.31
2022-10-09T17:55:38.595Z,68.61
2022-10-09T17:58:06.815Z,68.79
2022-10-09T18:00:38.451Z,69.18
2022-10-09T18:03:07.189Z,69.55
2022-10-09T18:05:53.399Z,69.85
2022-10-09T18:08:22.435Z,70.20
2022-10-09T18:11:00.080Z,70.33
2022-10-09T18:13:29.396Z,70.68
2022-10-09T18:15:57.919Z,70.95
2022-10-09T18:18:26.167Z,71.33
2022-10-09T18:20:54.362Z,71.66
2022-10-09T18:23:22.931Z,71.82
2022-10-09T18:25:51.256Z,72.20
2022-10-09T18:28:19.717Z,72.54
2022-10-09T18:30:48.057Z,72.94
2022-10-09T18:33:16.396Z,73.01
2022-10-09T18:35:45.106Z,73.21
2022-10-09T18:38:13.366Z,73.40
2022-10-09T18:40:45.804Z,73.61
2022-10-09T18:43:14.337Z,73.81
2022-10-09T18:45:46.525Z,74.03
2022-10-09T18:48:16.631Z,74.26
2022-10-09T18:50:45.053Z,74.45
2022-10-09T18:53:13.535Z,74.64
2022-10-09T18:55:43.832Z,74.93
2022-10-09T18:58:12.700Z,74.97
2022-10-09T19:00:43.406Z,75.17
2022-10-09T19:03:11.659Z,75.31
2022-10-09T19:05:40.116Z,75.43
2022-10-09T19:08:08.582Z,75.74
2022-10-09T19:10:37.036Z,75.94
2022-10-09T19:13:05.467Z,75.94
2022-10-09T19:15:34.019Z,76.13
2022-10-09T19:18:02.292Z,76.39
2022-10-09T19:20:31.545Z,76.35
2022-10-09T19:22:59.806Z,76.55
2022-10-09T19:25:28.216Z,76.70
2022-10-09T19:27:56.461Z,76.78
2022-10-09T19:30:24.782Z,76.93
2022-10-09T19:32:53.254Z,76.99
2022-10-09T19:35:21.622Z,77.18
2022-10-09T19:38:16.172Z,77.31
2022-10-09T19:40:46.533Z,77.44
2022-10-09T19:43:21.530Z,77.34
2022-10-09T19:46:12.894Z,77.46
2022-10-09T19:48:41.372Z,77.55
2022-10-09T19:51:15.423Z,77.73
2022-10-09T19:53:43.712Z,77.71
2022-10-09T19:56:18.391Z,77.97
2022-10-09T19:58:49.265Z,78.08
2022-10-09T20:01:21.391Z,78.30
2022-10-09T20:03:56.322Z,78.59
2022-10-09T20:06:26.102Z,78.52
2022-10-09T20:08:54.607Z,78.60
2022-10-09T20:11:23.660Z,78.60
2022-10-09T20:13:55.716Z,78.70
2022-10-09T20:16:32.067Z,78.87
2022-10-09T20:19:02.552Z,79.04
2022-10-09T20:21:33.742Z,79.29
2022-10-09T20:24:02.550Z,79.48
2022-10-09T20:27:10.405Z,79.86
2022-10-09T20:29:39.455Z,80.38
2022-10-09T20:32:08.019Z,80.67
2022-10-09T20:34:36.365Z,80.84
2022-10-09T20:37:04.671Z,80.93
2022-10-09T20:42:27.311Z,80.83
2022-10-09T20:44:55.636Z,80.86
2022-10-09T20:47:50.283Z,80.73
2022-10-09T20:50:18.683Z,80.70
2022-10-09T20:52:47.055Z,80.60
2022-10-09T20:55:15.346Z,80.81
2022-10-09T20:57:43.614Z,80.81
2022-10-09T21:00:12.656Z,80.91
2022-10-09T21:02:40.884Z,80.92
2022-10-09T21:05:09.390Z,81.10
2022-10-09T21:07:37.891Z,81.13
2022-10-09T21:10:07.091Z,81.43
2022-10-09T21:12:35.541Z,81.43
2022-10-09T21:15:05.404Z,81.38
2022-10-09T21:17:33.798Z,81.65
2022-10-09T21:20:02.004Z,81.77
2022-10-09T21:22:30.311Z,81.79
2022-10-09T21:24:58.595Z,82.33
2022-10-09T21:27:26.814Z,82.92
2022-10-09T21:29:55.018Z,83.42
2022-10-09T21:32:23.313Z,83.53
2022-10-09T21:34:51.583Z,83.68
2022-10-09T21:37:21.848Z,83.74
2022-10-09T21:39:50.675Z,83.79
2022-10-09T21:42:18.865Z,83.99
2022-10-09T21:44:47.079Z,83.99
2022-10-09T21:47:20.774Z,84.05
2022-10-09T21:49:48.965Z,84.39
2022-10-09T21:52:18.613Z,84.40
2022-10-09T21:54:51.963Z,84.47
2022-10-09T21:57:20.244Z,84.58
2022-10-09T21:59:48.462Z,84.67
2022-10-09T22:02:16.731Z,84.57
2022-10-09T22:04:44.956Z,84.56
2022-10-09T22:07:13.131Z,84.46
2022-10-09T22:09:41.348Z,84.63
2022-10-09T22:12:09.564Z,84.75
2022-10-09T22:14:49.346Z,84.82
2022-10-09T22:17:40.102Z,84.75
2022-10-09T22:20:09.879Z,84.75
2022-10-09T22:22:38.078Z,84.67
2022-10-09T22:25:07.506Z,84.57
2022-10-09T22:27:36.468Z,84.53
2022-10-09T22:30:05.720Z,84.55
2022-10-09T22:32:34.009Z,84.32
2022-10-09T22:35:02.202Z,84.52
2022-10-09T22:37:30.513Z,84.53
2022-10-09T22:39:58.735Z,84.51
2022-10-09T22:42:26.967Z,84.65
2022-10-09T22:44:55.304Z,84.98
2022-10-09T22:47:23.563Z,85.00
2022-10-09T22:49:51.830Z,85.10
2022-10-09T22:52:20.060Z,85.20
2022-10-09T22:54:48.319Z,85.21
2022-10-09T22:57:17.230Z,85.37
2022-10-09T22:59:45.867Z,85.43
2022-10-09T23:05:09.727Z,85.95
2022-10-09T23:07:38.050Z,86.18
2022-10-09T23:10:06.519Z,86.48
2022-10-09T23:12:34.869Z,86.54
2022-10-09T23:15:03.407Z,86.68
2022-10-09T23:17:31.699Z,87.02
2022-10-09T23:20:00.047Z,87.19
2022-10-09T23:22:28.412Z,87.06
2022-10-09T23:24:56.776Z,87.31
2022-10-09T23:27:24.967Z,87.30
2022-10-09T23:33:08.792Z,87.71
2022-10-09T23:35:43.372Z,87.55
2022-10-09T23:38:11.588Z,87.85
2022-10-09T23:40:39.857Z,87.81
2022-10-09T23:43:08.054Z,87.61
2022-10-09T23:45:40.797Z,87.53
2022-10-09T23:48:09.056Z,87.70
2022-10-09T23:50:37.280Z,87.58
2022-10-09T23:53:05.974Z,87.50
2022-10-09T23:55:34.215Z,87.63
2022-10-09T23:58:02.420Z,87.59
